HAZ1252 ZPPP-ZSHC
Flight info
| Callsign | HAZ1252 |
|---|---|
| Flight time | N/A |
| Altitude | 35100 |
| Route | NODIB W137 LPS A581 IDGAG W80 XSH DCT JDZ DCT TXN G204 OREXA |
| Aircraft | B77W/H-SDE1E2E3FGHIJ2J3J4J5M1RWXY/LB1D1 |
Departure
| Time | 2026-05-04 12:24 |
|---|---|
| Airport | Kunming Changshui International Airport (ZPPP) |
Arrival
| Time | N/A |
|---|---|
| Airport | Hangzhou Xiaoshan International Airport (ZSHC) |
| Time | Latitude | Longitude | Altitude | Speed | Heading |
|---|---|---|---|---|---|
| 2026-05-04 11:56 | 25.11173 | 102.93254 | 6906 ft | 0 kts | 218° |
| 2026-05-04 12:11 | 25.11178 | 102.93258 | 6906 ft | 4 kts | 219° |
| 2026-05-04 12:12 | 25.11199 | 102.93277 | 6923 ft | 4 kts | 218° |
| 2026-05-04 12:12 | 25.11218 | 102.93295 | 6923 ft | 3 kts | 232° |
| 2026-05-04 12:12 | 25.11227 | 102.93313 | 6923 ft | 2 kts | 263° |
| 2026-05-04 12:12 | 25.11228 | 102.93326 | 6922 ft | 2 kts | 281° |
| 2026-05-04 12:13 | 25.11225 | 102.93337 | 6922 ft | 2 kts | 296° |
| 2026-05-04 12:14 | 25.11219 | 102.93348 | 6922 ft | 0 kts | 307° |
| 2026-05-04 12:16 | 25.11223 | 102.93342 | 6922 ft | 2 kts | 308° |
| 2026-05-04 12:16 | 25.11231 | 102.93332 | 6923 ft | 2 kts | 308° |
| 2026-05-04 12:16 | 25.11243 | 102.93315 | 6923 ft | 4 kts | 308° |
| 2026-05-04 12:17 | 25.11272 | 102.93275 | 6923 ft | 9 kts | 308° |
| 2026-05-04 12:17 | 25.11319 | 102.93210 | 6917 ft | 13 kts | 308° |
| 2026-05-04 12:17 | 25.11383 | 102.93120 | 6915 ft | 17 kts | 308° |
| 2026-05-04 12:17 | 25.11445 | 102.93042 | 6921 ft | 8 kts | 327° |
| 2026-05-04 12:18 | 25.11506 | 102.93054 | 6918 ft | 11 kts | 38° |
| 2026-05-04 12:18 | 25.11580 | 102.93119 | 6919 ft | 16 kts | 38° |
| 2026-05-04 12:18 | 25.11681 | 102.93206 | 6918 ft | 21 kts | 38° |
| 2026-05-04 12:18 | 25.11804 | 102.93314 | 6912 ft | 25 kts | 38° |
| 2026-05-04 12:19 | 25.11948 | 102.93438 | 6913 ft | 27 kts | 38° |
| 2026-05-04 12:19 | 25.12095 | 102.93566 | 6915 ft | 27 kts | 38° |
| 2026-05-04 12:19 | 25.12241 | 102.93693 | 6917 ft | 27 kts | 38° |
| 2026-05-04 12:19 | 25.12389 | 102.93821 | 6909 ft | 27 kts | 38° |
| 2026-05-04 12:20 | 25.12535 | 102.93948 | 6903 ft | 27 kts | 38° |
| 2026-05-04 12:20 | 25.12682 | 102.94076 | 6902 ft | 27 kts | 38° |
| 2026-05-04 12:20 | 25.12829 | 102.94203 | 6901 ft | 27 kts | 38° |
| 2026-05-04 12:20 | 25.12927 | 102.94278 | 6901 ft | 9 kts | 4° |
| 2026-05-04 12:21 | 25.12977 | 102.94246 | 6901 ft | 9 kts | 305° |
| 2026-05-04 12:21 | 25.13012 | 102.94192 | 6899 ft | 9 kts | 306° |
| 2026-05-04 12:21 | 25.13019 | 102.94139 | 6899 ft | 7 kts | 245° |
| 2026-05-04 12:21 | 25.12988 | 102.94101 | 6899 ft | 0 kts | 219° |
| 2026-05-04 12:22 | 25.12987 | 102.94100 | 6899 ft | 1 kts | 219° |
| 2026-05-04 12:22 | 25.12986 | 102.94099 | 6899 ft | 0 kts | 219° |
| 2026-05-04 12:22 | 25.12917 | 102.94037 | 6900 ft | 39 kts | 218° |
| 2026-05-04 12:23 | 25.12528 | 102.93700 | 6921 ft | 102 kts | 218° |
| 2026-05-04 12:23 | 25.11823 | 102.93087 | 6914 ft | 155 kts | 218° |
| 2026-05-04 12:23 | 25.10854 | 102.92248 | 6932 ft | 193 kts | 218° |
| 2026-05-04 12:23 | 25.09788 | 102.91267 | 7204 ft | 205 kts | 220° |
| 2026-05-04 12:24 | 25.08836 | 102.90132 | 7855 ft | 201 kts | 237° |
| 2026-05-04 12:24 | 25.08032 | 102.88835 | 8285 ft | 208 kts | 235° |
| 2026-05-04 12:24 | 25.07167 | 102.87549 | 8823 ft | 209 kts | 235° |
| 2026-05-04 12:24 | 25.06295 | 102.86250 | 9373 ft | 212 kts | 236° |
| 2026-05-04 12:25 | 25.05422 | 102.84942 | 9924 ft | 211 kts | 236° |
| 2026-05-04 12:25 | 25.04542 | 102.83617 | 10298 ft | 223 kts | 236° |
| 2026-05-04 12:25 | 25.03582 | 102.82166 | 10460 ft | 245 kts | 236° |
| 2026-05-04 12:25 | 25.02530 | 102.80574 | 10664 ft | 266 kts | 236° |
| 2026-05-04 12:26 | 25.01412 | 102.78884 | 11096 ft | 280 kts | 236° |
| 2026-05-04 12:26 | 25.00202 | 102.77162 | 11639 ft | 290 kts | 226° |
| 2026-05-04 12:26 | 24.98453 | 102.75985 | 12282 ft | 304 kts | 199° |
| 2026-05-04 12:26 | 24.96326 | 102.75792 | 13137 ft | 315 kts | 173° |
| 2026-05-04 12:27 | 24.94271 | 102.76697 | 13960 ft | 327 kts | 144° |
| 2026-05-04 12:27 | 24.92764 | 102.78596 | 14647 ft | 334 kts | 123° |
| 2026-05-04 12:27 | 24.91554 | 102.80830 | 15294 ft | 343 kts | 121° |
| 2026-05-04 12:27 | 24.90350 | 102.83118 | 16062 ft | 348 kts | 122° |
| 2026-05-04 12:28 | 24.89108 | 102.85424 | 16876 ft | 352 kts | 123° |
| 2026-05-04 12:28 | 24.87812 | 102.87757 | 17474 ft | 366 kts | 124° |
| 2026-05-04 12:28 | 24.86421 | 102.90221 | 17650 ft | 392 kts | 124° |
| 2026-05-04 12:28 | 24.85046 | 102.92902 | 17769 ft | 414 kts | 111° |
| 2026-05-04 12:29 | 24.84562 | 102.96071 | 18213 ft | 428 kts | 86° |
| 2026-05-04 12:29 | 24.85092 | 102.99307 | 18827 ft | 434 kts | 71° |
| 2026-05-04 12:29 | 24.86218 | 103.02399 | 19512 ft | 435 kts | 60° |
| 2026-05-04 12:29 | 24.87738 | 103.05277 | 20222 ft | 436 kts | 53° |
| 2026-05-04 12:30 | 24.89501 | 103.08012 | 20930 ft | 438 kts | 48° |
| 2026-05-04 12:30 | 24.91510 | 103.10535 | 21622 ft | 439 kts | 42° |
| 2026-05-04 12:30 | 24.93681 | 103.12924 | 22294 ft | 443 kts | 40° |
| 2026-05-04 12:30 | 24.95915 | 103.15285 | 22944 ft | 448 kts | 39° |
| 2026-05-04 12:31 | 24.98183 | 103.17665 | 23579 ft | 452 kts | 40° |
| 2026-05-04 12:31 | 25.00470 | 103.20071 | 24133 ft | 457 kts | 40° |
| 2026-05-04 12:31 | 25.02773 | 103.22512 | 24666 ft | 461 kts | 40° |
| 2026-05-04 12:31 | 25.05085 | 103.24982 | 25161 ft | 466 kts | 40° |
| 2026-05-04 12:32 | 25.07416 | 103.27489 | 25676 ft | 470 kts | 40° |
| 2026-05-04 12:32 | 25.12132 | 103.32587 | 26686 ft | 479 kts | 39° |
| 2026-05-04 12:32 | 25.14518 | 103.35172 | 27177 ft | 483 kts | 39° |
| 2026-05-04 12:33 | 25.16928 | 103.37783 | 27682 ft | 487 kts | 39° |
| 2026-05-04 12:33 | 25.19360 | 103.40416 | 28157 ft | 491 kts | 39° |
| 2026-05-04 12:33 | 25.21806 | 103.43068 | 28616 ft | 496 kts | 39° |
| 2026-05-04 12:33 | 25.24281 | 103.45752 | 29073 ft | 500 kts | 38° |
| 2026-05-04 12:34 | 25.26769 | 103.48453 | 29523 ft | 504 kts | 38° |
| 2026-05-04 12:34 | 25.29274 | 103.51172 | 29967 ft | 508 kts | 38° |
| 2026-05-04 12:34 | 25.31807 | 103.53922 | 30398 ft | 512 kts | 38° |
| 2026-05-04 12:34 | 25.34356 | 103.56693 | 30769 ft | 515 kts | 38° |
| 2026-05-04 12:35 | 25.36920 | 103.59484 | 31153 ft | 518 kts | 38° |
| 2026-05-04 12:35 | 25.39491 | 103.62285 | 31539 ft | 520 kts | 38° |
| 2026-05-04 12:35 | 25.42074 | 103.65101 | 31885 ft | 522 kts | 38° |
| 2026-05-04 12:35 | 25.44666 | 103.67927 | 32210 ft | 525 kts | 38° |
| 2026-05-04 12:36 | 25.47270 | 103.70768 | 32505 ft | 527 kts | 38° |
| 2026-05-04 12:36 | 25.49884 | 103.73621 | 32855 ft | 528 kts | 38° |
| 2026-05-04 12:36 | 25.52488 | 103.76468 | 33273 ft | 526 kts | 38° |
| 2026-05-04 12:36 | 25.55056 | 103.79275 | 33708 ft | 525 kts | 38° |
| 2026-05-04 12:37 | 25.57682 | 103.82148 | 34137 ft | 523 kts | 38° |
| 2026-05-04 12:37 | 25.60265 | 103.84975 | 34503 ft | 522 kts | 38° |
| 2026-05-04 12:37 | 25.62845 | 103.87800 | 34859 ft | 520 kts | 38° |
| 2026-05-04 12:37 | 25.65418 | 103.90620 | 35228 ft | 518 kts | 38° |
| 2026-05-04 12:38 | 25.67942 | 103.93387 | 35593 ft | 517 kts | 38° |
| 2026-05-04 12:38 | 25.70494 | 103.96186 | 35926 ft | 516 kts | 38° |
| 2026-05-04 12:38 | 25.73038 | 103.98977 | 36256 ft | 515 kts | 38° |
| 2026-05-04 12:38 | 25.75579 | 104.01767 | 36592 ft | 513 kts | 38° |
| 2026-05-04 12:39 | 25.78096 | 104.04573 | 36933 ft | 514 kts | 40° |
| 2026-05-04 12:39 | 25.80451 | 104.07579 | 37191 ft | 519 kts | 46° |
| 2026-05-04 12:39 | 25.82565 | 104.10873 | 37239 ft | 527 kts | 51° |
| 2026-05-04 12:40 | 25.86514 | 104.17740 | 37252 ft | 527 kts | 52° |
| 2026-05-04 12:40 | 25.90442 | 104.24573 | 37248 ft | 522 kts | 51° |
| 2026-05-04 12:41 | 25.94395 | 104.31319 | 37247 ft | 520 kts | 51° |
| 2026-05-04 12:41 | 25.98341 | 104.38039 | 37244 ft | 520 kts | 51° |
| 2026-05-04 12:42 | 26.02508 | 104.44552 | 37239 ft | 513 kts | 43° |
| 2026-05-04 12:42 | 26.07503 | 104.50120 | 37226 ft | 504 kts | 33° |
| 2026-05-04 12:43 | 26.12918 | 104.55083 | 37234 ft | 506 kts | 32° |
| 2026-05-04 12:43 | 26.18374 | 104.60063 | 37218 ft | 508 kts | 32° |
| 2026-05-04 12:44 | 26.23822 | 104.65108 | 37221 ft | 510 kts | 33° |
| 2026-05-04 12:44 | 26.29264 | 104.70186 | 37205 ft | 511 kts | 33° |
| 2026-05-04 12:45 | 26.34712 | 104.75275 | 37242 ft | 511 kts | 33° |
| 2026-05-04 12:45 | 26.40172 | 104.80376 | 37193 ft | 512 kts | 33° |
| 2026-05-04 12:46 | 26.45617 | 104.85472 | 37193 ft | 511 kts | 32° |
| 2026-05-04 12:46 | 26.51048 | 104.90559 | 37188 ft | 509 kts | 32° |
| 2026-05-04 12:47 | 26.56458 | 104.95632 | 37183 ft | 507 kts | 32° |
| 2026-05-04 12:47 | 26.60913 | 104.99892 | 37164 ft | 510 kts | 37° |
| 2026-05-04 12:48 | 26.66049 | 105.07252 | 37167 ft | 526 kts | 54° |
| 2026-05-04 12:48 | 26.68728 | 105.13480 | 37175 ft | 533 kts | 60° |
| 2026-05-04 12:49 | 26.71675 | 105.21094 | 37177 ft | 533 kts | 61° |
| 2026-05-04 12:49 | 26.75140 | 105.29930 | 37182 ft | 535 kts | 60° |
| 2026-05-04 12:50 | 26.77681 | 105.36297 | 37170 ft | 535 kts | 60° |
| 2026-05-04 12:50 | 26.80729 | 105.43892 | 37185 ft | 535 kts | 60° |
| 2026-05-04 12:51 | 26.83776 | 105.51500 | 37192 ft | 537 kts | 60° |
| 2026-05-04 12:51 | 26.86806 | 105.59093 | 37191 ft | 537 kts | 60° |
| 2026-05-04 12:52 | 26.89853 | 105.66748 | 37193 ft | 539 kts | 60° |
| 2026-05-04 12:52 | 26.92901 | 105.74424 | 37197 ft | 539 kts | 60° |
| 2026-05-04 12:53 | 26.95941 | 105.82094 | 37194 ft | 538 kts | 60° |
| 2026-05-04 12:53 | 26.98975 | 105.89762 | 37195 ft | 537 kts | 60° |
| 2026-05-04 12:54 | 27.02002 | 105.97423 | 37202 ft | 537 kts | 60° |
| 2026-05-04 12:54 | 27.05081 | 106.05052 | 37203 ft | 535 kts | 57° |
| 2026-05-04 12:55 | 27.08452 | 106.12463 | 37197 ft | 533 kts | 56° |
| 2026-05-04 12:55 | 27.11878 | 106.19846 | 37186 ft | 533 kts | 56° |
| 2026-05-04 12:56 | 27.15257 | 106.27249 | 37212 ft | 533 kts | 56° |
| 2026-05-04 12:56 | 27.18622 | 106.34678 | 37211 ft | 534 kts | 56° |
| 2026-05-04 12:57 | 27.21994 | 106.42107 | 37191 ft | 533 kts | 56° |
| 2026-05-04 12:57 | 27.25369 | 106.49528 | 37201 ft | 533 kts | 56° |
| 2026-05-04 12:58 | 27.28737 | 106.56947 | 37228 ft | 533 kts | 56° |
| 2026-05-04 12:58 | 27.32106 | 106.64383 | 37214 ft | 534 kts | 56° |
| 2026-05-04 12:59 | 27.35480 | 106.71850 | 37196 ft | 537 kts | 56° |
| 2026-05-04 12:59 | 27.38855 | 106.79343 | 37198 ft | 538 kts | 56° |
| 2026-05-04 13:00 | 27.42225 | 106.86876 | 37206 ft | 539 kts | 56° |
| 2026-05-04 13:00 | 27.45591 | 106.94418 | 37199 ft | 539 kts | 56° |
| 2026-05-04 13:01 | 27.48938 | 107.01899 | 37210 ft | 537 kts | 56° |
| 2026-05-04 13:01 | 27.52344 | 107.09384 | 37193 ft | 537 kts | 56° |
| 2026-05-04 13:02 | 27.55752 | 107.16886 | 37186 ft | 538 kts | 56° |
| 2026-05-04 13:02 | 27.59152 | 107.24409 | 37182 ft | 538 kts | 56° |
| 2026-05-04 13:03 | 27.62535 | 107.31937 | 37187 ft | 537 kts | 56° |
| 2026-05-04 13:03 | 27.65913 | 107.39464 | 37186 ft | 537 kts | 56° |
| 2026-05-04 13:04 | 27.69262 | 107.46937 | 37182 ft | 538 kts | 56° |
| 2026-05-04 13:04 | 27.72631 | 107.54471 | 37185 ft | 537 kts | 56° |
| 2026-05-04 13:05 | 27.75996 | 107.62012 | 37183 ft | 537 kts | 56° |
| 2026-05-04 13:05 | 27.79359 | 107.69559 | 37163 ft | 538 kts | 56° |
| 2026-05-04 13:06 | 27.82715 | 107.77104 | 37162 ft | 538 kts | 56° |
| 2026-05-04 13:06 | 27.86122 | 107.84633 | 37159 ft | 537 kts | 56° |
| 2026-05-04 13:07 | 27.89563 | 107.92128 | 37169 ft | 538 kts | 56° |
| 2026-05-04 13:07 | 27.93002 | 107.99644 | 37162 ft | 538 kts | 56° |
| 2026-05-04 13:08 | 27.96426 | 108.07164 | 37137 ft | 538 kts | 56° |
| 2026-05-04 13:08 | 27.99845 | 108.14697 | 37165 ft | 539 kts | 56° |
| 2026-05-04 13:09 | 28.03265 | 108.22242 | 37134 ft | 539 kts | 56° |
| 2026-05-04 13:09 | 28.06686 | 108.29807 | 37146 ft | 540 kts | 56° |
| 2026-05-04 13:10 | 28.10086 | 108.37340 | 37156 ft | 541 kts | 56° |
| 2026-05-04 13:10 | 28.13514 | 108.44948 | 37148 ft | 542 kts | 56° |
| 2026-05-04 13:11 | 28.16939 | 108.52565 | 37152 ft | 543 kts | 56° |
| 2026-05-04 13:11 | 28.20370 | 108.60204 | 37160 ft | 544 kts | 56° |
| 2026-05-04 13:12 | 28.23794 | 108.67845 | 37169 ft | 544 kts | 56° |
| 2026-05-04 13:12 | 28.27227 | 108.75517 | 37164 ft | 546 kts | 56° |
| 2026-05-04 13:13 | 28.30655 | 108.83204 | 37144 ft | 546 kts | 56° |
| 2026-05-04 13:13 | 28.34076 | 108.90886 | 37138 ft | 544 kts | 56° |
| 2026-05-04 13:14 | 28.37484 | 108.98549 | 37159 ft | 544 kts | 56° |
| 2026-05-04 13:14 | 28.40892 | 109.06223 | 37152 ft | 544 kts | 56° |
| 2026-05-04 13:15 | 28.44284 | 109.13884 | 37152 ft | 543 kts | 56° |
| 2026-05-04 13:15 | 28.47674 | 109.21549 | 37165 ft | 542 kts | 56° |
| 2026-05-04 13:16 | 28.51064 | 109.29226 | 37139 ft | 543 kts | 56° |
| 2026-05-04 13:16 | 28.54455 | 109.36929 | 37139 ft | 546 kts | 56° |
| 2026-05-04 13:17 | 28.57835 | 109.44653 | 37142 ft | 548 kts | 58° |
| 2026-05-04 13:17 | 28.60730 | 109.52703 | 37137 ft | 554 kts | 63° |
| 2026-05-04 13:18 | 28.63461 | 109.60924 | 37147 ft | 555 kts | 63° |
| 2026-05-04 13:18 | 28.66266 | 109.69102 | 37142 ft | 554 kts | 62° |
| 2026-05-04 13:19 | 28.69179 | 109.77222 | 37142 ft | 553 kts | 62° |
| 2026-05-04 13:19 | 28.72110 | 109.85323 | 37138 ft | 553 kts | 62° |
| 2026-05-04 13:20 | 28.75020 | 109.93437 | 37138 ft | 553 kts | 62° |
| 2026-05-04 13:20 | 28.77911 | 110.01555 | 37151 ft | 553 kts | 62° |
| 2026-05-04 13:21 | 28.80800 | 110.09687 | 37140 ft | 555 kts | 62° |
| 2026-05-04 13:21 | 28.83691 | 110.17845 | 37131 ft | 555 kts | 62° |
| 2026-05-04 13:22 | 28.86575 | 110.26001 | 37133 ft | 554 kts | 62° |
| 2026-05-04 13:22 | 28.89450 | 110.34146 | 37147 ft | 553 kts | 62° |
| 2026-05-04 13:23 | 28.92319 | 110.42290 | 37132 ft | 553 kts | 62° |
| 2026-05-04 13:23 | 28.95182 | 110.50441 | 37121 ft | 552 kts | 63° |
| 2026-05-04 13:24 | 28.98030 | 110.58563 | 37133 ft | 551 kts | 63° |
| 2026-05-04 13:24 | 29.00874 | 110.66693 | 37144 ft | 551 kts | 63° |
| 2026-05-04 13:25 | 29.05161 | 110.78907 | 37139 ft | 553 kts | 62° |
| 2026-05-04 13:25 | 29.08062 | 110.87060 | 37135 ft | 554 kts | 62° |
| 2026-05-04 13:26 | 29.10959 | 110.95224 | 37131 ft | 556 kts | 63° |
| 2026-05-04 13:26 | 29.13860 | 111.03439 | 37127 ft | 557 kts | 63° |
| 2026-05-04 13:27 | 29.16754 | 111.11663 | 37135 ft | 558 kts | 63° |
| 2026-05-04 13:27 | 29.19650 | 111.19908 | 37109 ft | 558 kts | 63° |
| 2026-05-04 13:28 | 29.22519 | 111.28095 | 37114 ft | 557 kts | 63° |
| 2026-05-04 13:28 | 29.25396 | 111.36326 | 37119 ft | 556 kts | 63° |
| 2026-05-04 13:29 | 29.28266 | 111.44552 | 37121 ft | 556 kts | 63° |
| 2026-05-04 13:29 | 29.31130 | 111.52782 | 37124 ft | 556 kts | 63° |
| 2026-05-04 13:30 | 29.33994 | 111.61012 | 37110 ft | 555 kts | 62° |
| 2026-05-04 13:30 | 29.37457 | 111.68836 | 37111 ft | 545 kts | 51° |
| 2026-05-04 13:31 | 29.41642 | 111.76062 | 37119 ft | 544 kts | 49° |
| 2026-05-04 13:31 | 29.45860 | 111.83273 | 37116 ft | 545 kts | 50° |
| 2026-05-04 13:32 | 29.50038 | 111.90545 | 37116 ft | 546 kts | 50° |
| 2026-05-04 13:32 | 29.54190 | 111.97850 | 37113 ft | 547 kts | 51° |
| 2026-05-04 13:33 | 29.58344 | 112.05169 | 37112 ft | 547 kts | 51° |
| 2026-05-04 13:33 | 29.62503 | 112.12500 | 37109 ft | 547 kts | 51° |
| 2026-05-04 13:34 | 29.66658 | 112.19833 | 37115 ft | 548 kts | 51° |
| 2026-05-04 13:34 | 29.70808 | 112.27173 | 37116 ft | 548 kts | 51° |
| 2026-05-04 13:35 | 29.77026 | 112.38211 | 37118 ft | 548 kts | 51° |
| 2026-05-04 13:36 | 29.80449 | 112.44329 | 37107 ft | 547 kts | 51° |
| 2026-05-04 13:36 | 29.84570 | 112.51711 | 37107 ft | 547 kts | 51° |
| 2026-05-04 13:37 | 29.88683 | 112.59088 | 37107 ft | 547 kts | 52° |
| 2026-05-04 13:37 | 29.92794 | 112.66471 | 37111 ft | 547 kts | 52° |
| 2026-05-04 13:38 | 29.96901 | 112.73860 | 37112 ft | 547 kts | 52° |
| 2026-05-04 13:38 | 30.01007 | 112.81263 | 37112 ft | 547 kts | 52° |
| 2026-05-04 13:39 | 30.05104 | 112.88663 | 37111 ft | 547 kts | 52° |
| 2026-05-04 13:39 | 30.09201 | 112.96075 | 37110 ft | 547 kts | 52° |
| 2026-05-04 13:40 | 30.13287 | 113.03483 | 37107 ft | 547 kts | 52° |
| 2026-05-04 13:40 | 30.17369 | 113.10898 | 37109 ft | 547 kts | 52° |
| 2026-05-04 13:41 | 30.21450 | 113.18323 | 37110 ft | 547 kts | 52° |
| 2026-05-04 13:41 | 30.25566 | 113.25710 | 37109 ft | 546 kts | 52° |
| 2026-05-04 13:42 | 30.31787 | 113.36749 | 37106 ft | 546 kts | 52° |
| 2026-05-04 13:42 | 30.35920 | 113.44126 | 37115 ft | 546 kts | 52° |
| 2026-05-04 13:43 | 30.40040 | 113.51509 | 37112 ft | 546 kts | 52° |
| 2026-05-04 13:43 | 30.44157 | 113.58897 | 37108 ft | 546 kts | 52° |
| 2026-05-04 13:44 | 30.48266 | 113.66286 | 37107 ft | 545 kts | 52° |
| 2026-05-04 13:44 | 30.52371 | 113.73678 | 37114 ft | 545 kts | 52° |
| 2026-05-04 13:45 | 30.55995 | 113.81381 | 37099 ft | 551 kts | 69° |
| 2026-05-04 13:45 | 30.56931 | 113.85709 | 37119 ft | 554 kts | 80° |
| 2026-05-04 13:45 | 30.57239 | 113.90157 | 37113 ft | 555 kts | 92° |
| 2026-05-04 13:46 | 30.56286 | 113.98949 | 37111 ft | 554 kts | 99° |
| 2026-05-04 13:46 | 30.55382 | 114.07846 | 37096 ft | 555 kts | 97° |
| 2026-05-04 13:47 | 30.54612 | 114.16758 | 37114 ft | 556 kts | 97° |
| 2026-05-04 13:47 | 30.53740 | 114.25671 | 37113 ft | 557 kts | 97° |
| 2026-05-04 13:48 | 30.52856 | 114.34603 | 37109 ft | 558 kts | 97° |
| 2026-05-04 13:48 | 30.51975 | 114.43540 | 37112 ft | 558 kts | 97° |
| 2026-05-04 13:49 | 30.51089 | 114.52497 | 37110 ft | 559 kts | 98° |
| 2026-05-04 13:49 | 30.50197 | 114.61449 | 37114 ft | 559 kts | 98° |
| 2026-05-04 13:50 | 30.49297 | 114.70412 | 37119 ft | 559 kts | 98° |
| 2026-05-04 13:50 | 30.48391 | 114.79365 | 37124 ft | 559 kts | 98° |
| 2026-05-04 13:51 | 30.47480 | 114.88317 | 37139 ft | 559 kts | 98° |
| 2026-05-04 13:51 | 30.46563 | 114.97255 | 37142 ft | 559 kts | 98° |
| 2026-05-04 13:52 | 30.45174 | 115.10689 | 37147 ft | 560 kts | 98° |
| 2026-05-04 13:53 | 30.44222 | 115.19587 | 37138 ft | 559 kts | 102° |
| 2026-05-04 13:53 | 30.42071 | 115.28177 | 37147 ft | 552 kts | 117° |
| 2026-05-04 13:54 | 30.38475 | 115.35939 | 37140 ft | 544 kts | 129° |
| 2026-05-04 13:54 | 30.36375 | 115.39579 | 37137 ft | 544 kts | 130° |
| 2026-05-04 13:55 | 30.30040 | 115.50473 | 36770 ft | 543 kts | 129° |
| 2026-05-04 13:55 | 30.25917 | 115.57719 | 36268 ft | 535 kts | 129° |
| 2026-05-04 13:55 | 30.23888 | 115.61302 | 36025 ft | 531 kts | 129° |
| 2026-05-04 13:56 | 30.21870 | 115.64863 | 35784 ft | 527 kts | 129° |
| 2026-05-04 13:56 | 30.19861 | 115.68398 | 35529 ft | 524 kts | 130° |
| 2026-05-04 13:56 | 30.15884 | 115.75379 | 35203 ft | 517 kts | 130° |
| 2026-05-04 13:57 | 30.13900 | 115.78851 | 35173 ft | 518 kts | 130° |
| 2026-05-04 13:58 | 30.05878 | 115.92877 | 35151 ft | 526 kts | 130° |
| 2026-05-04 13:58 | 29.99866 | 116.03520 | 35146 ft | 528 kts | 130° |
| 2026-05-04 13:59 | 29.95844 | 116.10602 | 35145 ft | 528 kts | 130° |
| 2026-05-04 14:00 | 29.89977 | 116.21357 | 35144 ft | 535 kts | 121° |
| 2026-05-04 14:00 | 29.87621 | 116.29557 | 35164 ft | 545 kts | 105° |
| 2026-05-04 14:00 | 29.87043 | 116.33893 | 35157 ft | 549 kts | 97° |
| 2026-05-04 14:01 | 29.86536 | 116.42679 | 35155 ft | 550 kts | 95° |
| 2026-05-04 14:02 | 29.85816 | 116.55876 | 35170 ft | 551 kts | 96° |
| 2026-05-04 14:02 | 29.85257 | 116.64682 | 35171 ft | 551 kts | 97° |
| 2026-05-04 14:03 | 29.84672 | 116.73492 | 35180 ft | 552 kts | 97° |
| 2026-05-04 14:03 | 29.84083 | 116.82313 | 35175 ft | 553 kts | 97° |
| 2026-05-04 14:04 | 29.83195 | 116.95566 | 35183 ft | 553 kts | 97° |
| 2026-05-04 14:04 | 29.82597 | 117.04401 | 35062 ft | 553 kts | 97° |
| 2026-05-04 14:05 | 29.81995 | 117.13206 | 34457 ft | 550 kts | 97° |
| 2026-05-04 14:05 | 29.81698 | 117.17573 | 34106 ft | 546 kts | 97° |
| 2026-05-04 14:05 | 29.81400 | 117.21928 | 33580 ft | 547 kts | 97° |
| 2026-05-04 14:06 | 29.81095 | 117.26315 | 33084 ft | 552 kts | 97° |
| 2026-05-04 14:06 | 29.80787 | 117.30711 | 32580 ft | 550 kts | 97° |
| 2026-05-04 14:06 | 29.80479 | 117.35098 | 32037 ft | 549 kts | 97° |
| 2026-05-04 14:06 | 29.80173 | 117.39430 | 31446 ft | 552 kts | 97° |
| 2026-05-04 14:07 | 29.79859 | 117.43845 | 30861 ft | 554 kts | 97° |